This is the latest recevied weather packets stored in our database for station/object OE3XAM-13. If no packets are shown the sender has not sent any weather packets the latest 10 day(s).
| Time | Temp. | Humidity | Pressure | Rain* | Wind** | Luminosity | Snow |
|---|---|---|---|---|---|---|---|
| 1777880488 | 20° C | 44% | 979 hPa | 0 mm | - | - | - |
| 1777878688 | 19.44° C | 46% | 979 hPa | 0 mm | - | - | - |
| 1777876888 | 18.89° C | 46% | 979 hPa | 0 mm | - | - | - |
| 1777875088 | 15.56° C | 61% | 979 hPa | 0 mm | - | - | - |
| 1777873288 | 12.22° C | 70% | 979 hPa | 0 mm | - | - | - |
| 1777871488 | 10.56° C | 74% | 978 hPa | 0 mm | - | - | - |
| 1777869688 | 10.56° C | 73% | 978 hPa | 0 mm | - | - | - |
| 1777867888 | 10.56° C | 72% | 978 hPa | 0 mm | - | - | - |
| 1777866088 | 10.56° C | 71% | 977 hPa | 0 mm | - | - | - |
| 1777864288 | 11.11° C | 70% | 978 hPa | 0 mm | - | - | - |
| 1777862488 | 11.11° C | 69% | 978 hPa | 0 mm | - | - | - |
| 1777860688 | 11.11° C | 68% | 977 hPa | 0 mm | - | - | - |
| 1777858888 | 11.11° C | 68% | 977 hPa | 0 mm | - | - | - |
| 1777857088 | 11.67° C | 66% | 977 hPa | 0 mm | - | - | - |
| 1777855288 | 11.67° C | 65% | 977 hPa | 0 mm | - | - | - |
| 1777853488 | 12.22° C | 63% | 977 hPa | 0 mm | - | - | - |
| 1777851688 | 12.78° C | 61% | 976 hPa | 0 mm | - | - | - |
| 1777849888 | 13.89° C | 58% | 976 hPa | 0 mm | - | - | - |
| 1777848088 | 14.44° C | 54% | 976 hPa | 0 mm | - | - | - |
| 1777846288 | 15° C | 53% | 976 hPa | 0 mm | - | - | - |
| 1777844488 | 16.11° C | 50% | 976 hPa | 0 mm | - | - | - |
| 1777842688 | 16.11° C | 48% | 976 hPa | 0 mm | - | - | - |
| 1777840888 | 17.22° C | 46% | 976 hPa | 0 mm | - | - | - |
| 1777839088 | 17.78° C | 43% | 976 hPa | 0 mm | - | - | - |
| 1777837288 | 18.33° C | 41% | 976 hPa | 0 mm | - | - | - |
* Rain latest hour (hover to see other rain measurements)
** Current wind speed in m/s (hover to see current wind gust speed)